Terminal Aerodrome Forecast
Issued by NWS Wilmington, NC

Home | Current Version | Previous Version | Text Only | Print | Product List | Glossary On
Versions: 1 2 3 4 5 6 7 8 9 10 11 12 13 14 15 16 17
000
FTUS42 KILM 220800 AAA
TAFILM
TAF AMD
KILM 220848Z 2209/2306 01008KT 6SM -DZ BR OVC004
      TEMPO 2209/2213 5SM -RA BR OVC005
     FM221700 36007KT P6SM OVC006
     FM230000 35004KT 2SM BR OVC004=

USA.gov is the U.S. government's official web portal to all federal, state and local government web resources and services.